Weather at Barkley Regional Airport

Public forecast

Using degrees Fahrenheit for public forecast. Weather courtesy of forecast.io.

Current aviation weather report (METAR) for Barkley Regional Airport

Retrieved 2021/01/21 14:40 UTC (0 seconds ago):

KPAH 211440Z 25005KT 6SM BR BKN006 06/04 A2998 RMK AO2 T00560039

Aviation forecast (TAF) for Barkley Regional Airport

Forecast is more than 6 hours old.

Retrieved 2021/01/21 06:22 UTC (8 hours ago):

TAF KPAH 210520Z 2106/2206 23009G15KT 6SM -RA BR OVC012 FM210900 25007KT P6SM OVC010 FM211500 28006KT P6SM SCT012 BKN250 FM212300 VRB03KT P6SM BKN250